Date,TemperatureHighF,TemperatureAvgF,TemperatureLowF,DewpointHighF,DewpointAvgF,DewpointLowF,HumidityHigh,HumidityAvg,HumidityLow,PressureMaxIn,PressureMinIn,WindSpeedMaxMPH,WindSpeedAvgMPH,GustSpeedMaxMPH,PrecipitationSumIn
2013-1-11,32,30,30,30,28,25,96,91,75,30.31,30.22,3,1,5,0.00
2013-1-12,40,35,31,39,34,30,97,96,96,30.22,30.13,5,1,11,0.07
2013-1-13,46,42,36,45,41,35,98,97,97,30.14,29.98,13,4,16,0.08
2013-1-14,52,43,32,48,37,24,98,81,55,30.26,29.85,11,3,22,0.08
2013-1-15,34,30,26,24,22,19,83,71,59,30.32,30.22,2,0,5,0.00
2013-1-16,28,27,25,27,24,20,95,89,73,30.25,29.83,2,0,4,0.00
2013-1-17,34,27,20,28,19,6,94,74,54,30.11,29.83,14,4,14,0.00
2013-1-18,20,13,6,5,-1,-7,75,53,37,30.43,30.05,11,2,14,0.00
2013-1-19,39,30,16,26,17,5,64,58,49,30.36,29.85,12,5,21,0.01
2013-1-20,43,33,21,29,20,7,73,58,30,29.91,29.52,21,5,28,0.01
2013-1-21,21,17,11,14,5,-2,92,62,47,30.05,29.80,8,2,14,0.00
2013-1-22,17,12,3,14,4,-5,92,72,41,30.07,29.78,6,1,12,0.00
2013-1-23,7,2,-5,-6,-14,-17,64,48,33,30.16,30.06,7,2,13,0.00
2013-1-24,11,2,-7,-11,-14,-16,66,48,32,30.27,30.10,10,4,15,0.00
2013-1-25,15,8,0,6,-9,-13,83,47,30,30.34,30.10,8,2,10,0.00
2013-1-26,16,9,3,6,-3,-9,87,61,32,30.27,30.05,7,2,10,0.00
2013-1-27,24,13,6,0,-2,-7,73,52,29,30.51,30.26,7,2,11,0.00
2013-1-28,22,17,12,18,9,-2,92,72,48,30.49,30.06,2,0,4,0.00
2013-1-29,32,25,17,28,22,16,96,90,80,30.20,30.06,2,0,4,0.00
2013-1-30,55,42,29,54,41,28,98,96,94,30.15,29.41,18,4,26,0.49
2013-1-31,58,43,26,56,35,14,97,76,51,29.44,28.89,16,6,28,1.10
2013-2-1,24,21,20,11,8,6,59,56,51,29.77,29.51,21,14,21,0.00
2013-2-2,22,18,9,13,4,0,80,56,44,30.22,30.05,17,5,17,0.00
2013-2-3,24,19,13,15,13,10,88,78,63,30.06,29.75,4,0,6,0.00
2013-2-4,23,18,14,14,7,0,85,63,43,29.87,29.73,11,3,17,0.00
2013-2-5,27,18,9,14,7,2,80,63,44,30.02,29.92,9,3,9,0.00
2013-2-6,31,23,17,22,13,2,92,68,42,30.31,29.94,6,2,15,0.00
2013-2-7,23,16,8,2,-2,-6,63,44,34,30.53,30.31,3,1,6,0.00
2013-2-8,19,15,11,13,9,-6,90,80,35,30.51,29.80,8,2,17,0.00
2013-2-9,17,12,7,15,10,5,92,90,89,30.27,29.76,14,3,16,0.00
2013-2-10,34,20,8,13,4,-3,89,57,23,30.45,30.27,5,2,8,0.00
2013-2-11,33,26,18,32,19,-3,97,79,26,30.36,29.65,4,1,16,0.00
2013-2-12,35,33,30,32,27,24,97,81,70,29.86,29.63,16,3,17,0.19
2013-2-13,38,31,27,24,20,18,78,66,48,29.86,29.73,5,1,10,0.04
2013-2-14,40,31,24,20,19,17,78,61,42,29.97,29.72,3,1,8,0.02
2013-2-15,48,36,26,28,24,19,87,64,43,29.97,29.88,15,3,19,0.01
2013-2-16,35,29,21,27,20,3,94,70,45,29.96,29.76,5,1,9,0.01
2013-2-17,21,15,9,6,1,-3,70,54,45,29.76,29.43,14,5,20,0.00
2013-2-18,25,15,6,-1,-4,-7,62,44,25,30.16,29.72,17,4,24,0.00
2013-2-19,40,29,17,36,17,-1,96,62,38,30.19,29.59,7,2,12,0.07
2013-2-20,35,26,19,33,17,10,96,71,50,29.74,29.54,8,3,16,0.00
2013-2-21,25,20,16,14,10,6,80,65,50,30.27,29.74,7,3,14,0.00
2013-2-22,36,27,18,20,16,13,87,66,43,30.42,30.27,5,1,9,0.00
2013-2-23,31,28,26,28,25,19,96,86,72,30.33,29.95,4,1,7,0.00
2013-2-24,31,30,28,29,28,27,96,95,93,29.95,29.75,2,0,4,0.00
2013-2-25,33,30,25,30,28,24,96,92,88,30.25,29.91,0,0,0,0.00
2013-2-26,39,32,29,31,28,25,94,84,65,30.33,30.18,6,0,7,0.31
2013-2-27,35,31,29,34,30,26,97,95,85,30.18,29.63,8,2,15,0.00
2013-2-28,38,32,28,35,31,27,97,96,91,29.64,29.55,2,0,4,0.30
2013-3-1,34,32,29,32,27,24,97,84,72,29.70,29.56,5,2,9,0.04
2013-3-2,36,31,27,27,24,22,85,77,65,29.69,29.64,5,2,12,0.02
2013-3-3,34,28,24,27,23,20,89,82,70,29.66,29.58,5,2,7,0.02
2013-3-4,32,27,23,24,20,18,86,76,63,29.80,29.61,8,3,12,0.00
2013-3-5,40,32,23,29,24,19,88,74,55,30.09,29.80,9,2,9,0.14
2013-3-6,32,30,28,30,28,25,96,91,83,30.15,30.07,8,2,21,0.01
2013-3-7,30,28,26,27,25,23,95,91,82,30.15,30.06,7,3,16,0.00
2013-3-8,38,31,26,29,25,19,96,80,56,30.22,30.01,9,2,16,0.05
2013-3-9,53,37,26,25,19,10,84,53,19,30.35,30.20,5,1,8,0.30
2013-3-10,46,34,23,28,25,20,93,71,44,30.40,30.28,6,2,9,0.00
2013-3-11,47,39,31,37,30,27,89,71,46,30.30,30.13,8,2,14,0.00
2013-3-12,49,43,37,48,42,36,97,95,82,30.13,29.70,9,3,14,0.79
2013-3-13,44,36,28,38,26,18,96,69,38,29.78,29.70,7,2,12,0.00
2013-3-14,30,24,16,22,13,5,74,61,49,29.84,29.69,9,3,14,0.00
2013-3-15,34,23,12,27,11,0,93,63,29,29.87,29.64,9,3,16,0.00
2013-3-16,33,26,18,22,11,7,85,54,33,29.90,29.71,5,1,11,0.00
2013-3-17,29,23,14,10,6,0,79,49,31,30.33,29.90,7,2,12,0.00
2013-3-18,34,22,10,22,2,-3,90,44,22,30.46,30.24,3,1,6,0.00
2013-3-19,30,26,22,28,25,20,95,94,90,30.24,29.69,4,0,11,0.00
2013-3-20,32,25,20,21,18,16,94,77,57,29.80,29.71,0,0,0,0.00
2013-3-21,24,22,22,16,15,15,76,75,71,29.81,29.80,0,0,0,0.00
2013-3-22,22,22,22,15,15,15,75,75,75,29.80,29.80,0,0,0,0.00
2013-3-23,36,27,0,21,16,13,85,46,40,29.80,29.64,13,4,17,0.03
2013-3-24,41,33,27,22,20,18,75,60,45,29.84,29.75,7,2,11,0.04
2013-3-25,40,32,25,27,23,19,77,69,54,29.79,29.54,8,1,13,0.00
2013-3-26,44,34,30,28,23,16,88,65,33,29.80,29.59,10,2,11,0.00
2013-3-27,47,36,29,29,22,18,80,57,35,29.90,29.77,13,3,13,0.00
2013-3-28,44,36,31,33,30,24,95,78,45,30.04,29.90,7,1,8,0.01
2013-3-29,50,40,34,31,29,24,82,68,38,30.06,29.98,10,2,10,0.00
2013-3-30,47,39,32,30,23,16,84,58,29,30.08,30.01,5,2,9,0.00
2013-3-31,67,64,0,38,36,16,36,33,33,30.06,29.74,1,0,1,0.00
2013-4-1,66,46,28,40,27,8,87,50,35,29.73,29.47,10,3,20,0.03
2013-4-2,32,27,22,17,10,7,66,50,38,29.91,29.73,24,4,24,0.00
2013-4-3,40,30,22,13,8,3,59,42,22,30.16,29.90,9,4,17,0.00
2013-4-4,51,37,24,21,13,8,67,41,20,30.29,30.01,11,3,18,0.00
2013-4-5,53,40,32,26,22,16,77,52,25,30.01,29.67,9,4,17,0.00
2013-4-6,40,31,23,21,6,0,68,37,20,30.33,29.88,9,3,16,0.00
2013-4-7,53,40,28,37,16,1,84,39,26,30.33,29.97,17,5,25,0.00
2013-4-8,60,49,37,38,32,25,95,56,28,30.08,29.95,15,3,15,0.00
2013-4-9,60,50,40,46,39,34,94,69,47,30.05,29.87,14,3,14,0.01
2013-4-10,64,49,42,48,44,38,97,84,51,29.98,29.85,4,0,7,0.68
2013-4-11,44,39,33,43,34,24,98,82,55,30.15,29.85,4,0,7,0.08
2013-4-12,34,31,29,32,29,27,98,93,80,30.17,29.86,5,1,63,0.04
2013-4-13,50,38,30,38,33,30,98,83,51,29.95,29.81,11,0,11,0.20
2013-4-14,45,40,35,34,30,26,90,69,48,30.22,29.92,11,2,15,0.00
2013-4-15,58,43,32,35,30,27,81,62,35,30.37,30.22,6,1,9,0.00
2013-4-16,63,50,39,50,39,26,92,66,43,30.37,30.03,17,5,27,0.00
2013-4-17,60,51,43,51,32,25,94,52,27,30.33,30.04,10,2,13,0.00
2013-4-18,61,49,37,43,29,24,77,46,33,30.42,30.13,10,2,11,0.00
2013-4-19,71,60,50,61,55,43,98,83,62,30.13,29.59,18,4,27,0.04
2013-4-20,63,46,34,60,35,18,98,69,39,30.22,29.59,12,3,18,0.27
2013-4-21,49,38,29,19,16,10,64,42,21,30.68,30.22,5,1,13,0.00
2013-4-22,50,38,30,26,20,14,66,50,31,30.75,30.66,4,1,12,0.00
2013-4-23,37,34,31,36,33,28,98,95,84,30.60,30.17,9,2,10,0.05
2013-4-24,73,54,37,48,41,32,99,69,24,30.17,29.77,12,2,18,0.02
2013-4-25,58,51,42,48,33,19,92,55,23,30.15,29.76,8,2,16,0.00
2013-4-26,58,50,40,34,28,20,63,45,33,30.42,30.28,6,1,69,0.00
2013-4-27,65,51,35,35,32,28,86,51,26,30.42,30.27,4,0,6,0.00
2013-4-28,70,54,39,38,35,31,84,52,26,30.32,30.17,6,1,8,0.00
2013-4-29,64,53,47,43,36,21,73,54,33,30.23,30.19,8,3,14,0.00
2013-4-30,69,58,49,30,25,20,43,28,20,30.33,30.23,9,4,9,0.00
2013-5-1,72,55,38,32,27,21,71,36,18,30.45,30.33,6,1,6,0.00
2013-5-2,78,58,45,43,36,27,76,48,20,30.47,30.30,6,1,11,0.00
2013-5-3,64,48,37,42,36,33,88,65,41,30.51,30.39,6,1,10,0.00
2013-5-4,67,54,40,44,36,25,92,54,29,30.37,30.25,5,1,11,0.00
2013-5-5,66,49,34,37,33,28,91,59,25,30.31,30.21,5,1,28,0.00
2013-5-6,73,56,37,47,37,30,97,58,22,30.26,30.11,4,0,9,0.00
2013-5-7,79,64,46,54,46,32,94,57,20,30.15,30.04,12,1,53,0.00
2013-5-8,70,61,55,62,57,52,98,87,63,30.17,30.03,4,0,9,0.25
2013-5-9,64,58,55,58,56,54,99,96,79,30.02,29.87,199,3,199,0.17
2013-5-10,75,63,49,59,53,48,100,72,43,29.95,29.87,9,1,45,0.01
2013-5-11,65,61,58,61,57,52,97,87,64,29.87,29.67,8,2,17,0.13
2013-5-12,63,55,42,58,46,26,98,74,39,29.77,29.57,63,1,63,0.04
2013-5-13,50,43,38,31,28,24,73,55,39,30.05,29.77,4,1,20,0.00
2013-5-14,53,45,35,32,29,26,81,57,37,30.06,29.99,22,1,69,0.00
2013-5-15,60,50,35,50,36,27,94,62,30,30.05,29.66,10,1,13,0.00
2013-5-16,75,62,48,50,40,30,94,51,22,29.80,29.63,12,2,21,0.00
2013-5-17,65,54,43,42,38,33,85,56,31,30.21,29.81,3,1,12,0.00
2013-5-18,70,57,43,45,37,29,79,51,23,30.30,30.21,3,0,14,0.00
2013-5-19,66,54,43,53,48,42,98,84,58,30.32,30.18,4,0,56,0.00
2013-5-20,75,64,53,63,58,52,98,84,61,30.18,29.93,3,0,29,0.01
2013-5-21,75,62,48,67,58,47,98,89,71,30.01,29.86,3,0,49,0.24
2013-5-22,68,55,48,62,54,47,99,96,82,29.98,29.84,4,1,9,0.96
2013-5-23,73,60,50,67,59,50,100,96,82,29.90,29.76,11,1,13,0.29
2013-5-24,66,58,44,64,56,43,99,93,78,29.83,29.62,3,0,10,0.21
2013-5-25,44,42,35,44,41,34,99,98,97,29.83,29.74,3,1,9,0.55
2013-5-26,50,43,35,41,37,34,99,82,60,30.09,29.73,10,1,10,0.01
2013-5-27,66,53,39,42,37,31,93,59,29,30.18,30.09,5,0,9,0.00
2013-5-28,70,58,42,44,40,34,90,57,27,30.23,30.14,2,0,7,0.00
2013-5-29,64,59,52,64,58,45,100,96,67,30.16,29.97,1,0,2,0.31
2013-5-30,83,72,60,66,63,60,99,77,48,30.07,30.00,8,0,92,0.00
2013-5-31,88,78,65,68,62,58,88,61,38,30.07,29.91,4,0,18,0.00
2013-6-1,88,77,68,66,63,59,80,64,38,29.94,29.84,4,1,12,0.00
2013-6-2,86,76,66,69,66,64,97,74,48,29.83,29.65,49,4,75,0.03
2013-6-3,75,66,55,66,58,45,98,78,49,29.82,29.74,3,0,8,0.01
2013-6-4,65,56,44,46,42,38,81,62,43,30.09,29.82,5,1,17,0.00
2013-6-5,70,60,50,50,45,40,81,59,36,30.18,30.08,2,0,5,0.00
2013-6-6,69,60,52,53,49,46,90,68,50,30.18,30.08,3,0,61,0.00
2013-6-7,52,50,47,52,49,46,99,97,87,30.09,29.86,62,2,95,1.29
2013-6-8,69,58,48,61,55,48,99,91,74,30.00,29.68,2,0,43,0.88
2013-6-9,73,64,54,58,54,52,99,74,48,30.16,30.00,3,0,43,0.00
2013-6-10,67,61,55,58,56,53,98,84,69,30.18,29.99,2,0,4,0.32
2013-6-11,56,54,52,55,53,52,99,98,95,29.99,29.58,5,1,6,1.29
2013-6-12,63,57,52,55,53,51,100,88,71,29.82,29.56,6,1,9,0.10
2013-6-13,62,55,51,57,52,48,99,91,75,29.81,29.69,1,0,75,0.26
2013-6-14,71,58,49,58,51,48,99,81,48,29.79,29.67,2,0,7,0.01
2013-6-15,72,63,52,52,46,39,83,56,30,29.93,29.80,5,0,10,0.00
2013-6-16,71,64,54,59,51,44,88,64,48,29.92,29.68,31,1,55,0.00
2013-6-17,80,66,58,61,58,53,94,77,42,29.84,29.76,3,0,8,0.00
2013-6-18,65,59,55,60,56,52,99,93,83,29.94,29.87,215,10,215,0.00
2013-6-19,70,60,50,53,47,42,95,64,38,30.14,29.91,7,1,7,0.00
2013-6-20,74,62,48,53,45,42,88,56,34,30.25,30.15,6,0,6,0.00
2013-6-21,79,69,57,59,52,47,86,59,34,30.23,30.18,3,1,24,0.00
2013-6-22,80,71,60,65,60,53,91,68,49,30.19,30.07,4,1,13,0.00
2013-6-23,86,75,64,71,65,58,83,72,58,30.11,29.94,5,1,12,0.00
2013-6-24,88,76,67,71,67,64,93,78,50,29.97,29.86,4,1,11,0.00
2013-6-25,86,73,64,71,67,63,98,82,51,29.91,29.71,2,0,7,0.50
2013-6-26,74,69,65,71,67,65,99,95,85,29.83,29.70,1,0,5,0.00
2013-6-27,72,65,61,68,64,61,100,96,86,29.82,29.73,2,0,4,0.02
2013-6-28,77,64,54,72,62,54,100,97,81,29.73,29.46,3,0,8,0.45
2013-6-29,79,72,67,68,67,65,100,84,62,29.67,29.48,4,1,12,0.00
2013-6-30,81,72,67,70,68,66,97,86,62,29.89,29.67,3,1,8,0.17
2013-7-1,74,71,68,71,70,67,99,96,88,30.04,29.89,2,0,3,0.40
2013-7-2,81,70,60,72,68,60,99,93,74,30.18,30.03,5,1,8,0.04
2013-7-3,82,73,60,72,68,59,100,87,69,30.18,30.11,3,1,6,0.01
2013-7-4,88,79,71,73,71,69,97,78,56,30.17,30.05,5,1,11,0.00
2013-7-5,88,79,72,76,72,70,96,80,55,30.12,30.00,2,0,7,0.02
2013-7-6,83,76,72,72,69,63,96,79,60,30.05,29.96,3,0,7,0.00
2013-7-7,86,76,67,74,67,58,88,74,60,30.00,29.88,3,0,5,0.00
2013-7-8,85,73,64,73,69,64,98,89,57,30.03,29.88,5,1,5,0.69
2013-7-9,72,66,62,68,65,61,99,96,86,30.08,30.01,1,0,3,0.00
2013-7-10,75,68,64,73,68,64,100,99,92,30.05,29.77,4,0,4,0.28
2013-7-11,80,73,65,72,69,62,99,90,69,29.93,29.74,2,0,4,0.00
2013-7-12,76,68,62,63,60,57,87,75,58,30.19,29.94,4,0,7,0.00
2013-7-13,74,67,61,69,63,56,98,87,77,30.30,30.19,1,0,2,0.00
2013-7-14,84,76,68,73,70,68,99,83,61,30.29,30.19,2,0,5,0.00
2013-7-15,86,78,70,73,69,67,91,76,55,30.19,30.08,4,0,6,0.00
2013-7-16,87,78,70,70,67,64,86,70,52,30.14,30.10,4,0,8,0.00
2013-7-17,89,80,69,72,68,65,88,69,54,30.16,29.95,3,0,10,0.00
2013-7-18,89,80,71,73,71,68,93,76,52,29.98,29.89,2,0,7,0.00
2013-7-19,90,82,70,74,71,68,96,72,52,29.91,29.67,11,2,17,0.00
2013-7-20,84,77,68,70,66,62,82,69,59,29.78,29.62,4,1,12,0.00
2013-7-21,78,71,64,67,63,60,91,78,57,29.96,29.78,1,0,2,0.00
2013-7-22,77,68,62,69,65,62,99,92,73,30.00,29.88,2,0,6,0.00
2013-7-23,74,67,63,71,66,63,99,96,87,29.86,29.53,2,0,4,1.18
2013-7-24,78,69,55,69,63,49,99,82,64,29.96,29.57,4,0,11,0.00
2013-7-25,68,59,52,58,53,47,96,82,67,30.10,29.96,4,0,5,0.00
2013-7-26,68,60,59,64,59,57,99,96,87,30.08,29.96,1,0,4,0.19
2013-7-27,79,70,56,63,60,55,98,73,49,30.04,29.97,5,1,10,0.00
2013-7-28,78,68,59,70,64,58,99,86,65,29.99,29.94,3,0,5,0.05
2013-7-29,80,70,64,69,64,60,100,83,57,30.03,29.93,4,0,7,0.02
2013-7-30,75,67,58,59,56,54,90,69,50,30.08,30.02,2,0,6,0.00
2013-7-31,77,68,58,60,58,55,93,70,47,30.12,30.02,4,0,4,0.00
2013-8-1,76,65,57,65,61,55,97,87,66,30.02,29.85,4,0,5,0.03
2013-8-2,77,68,61,66,60,54,99,78,48,29.84,29.77,3,0,5,0.17
2013-8-3,76,67,61,60,57,53,87,71,48,29.84,29.75,4,1,7,0.00
2013-8-4,72,62,54,59,54,52,91,78,54,29.89,29.77,2,0,5,0.00
2013-8-5,69,59,51,52,47,41,94,67,37,30.05,29.88,8,0,8,0.00
2013-8-6,74,62,51,57,50,44,85,66,46,30.13,30.05,2,0,3,0.00
2013-8-7,74,66,57,60,56,52,93,73,47,30.16,30.08,3,0,71,0.00
2013-8-8,79,70,60,69,65,58,98,85,70,30.08,29.98,3,1,8,0.00
2013-8-9,72,70,68,71,69,68,99,97,91,29.98,29.72,4,1,8,0.57
2013-8-10,75,68,58,68,60,50,99,77,48,30.00,29.77,3,0,7,0.00
2013-8-11,74,64,54,57,53,49,86,67,46,30.07,29.99,2,0,5,0.00
2013-8-12,76,67,57,60,56,53,87,68,51,30.02,29.90,2,0,4,0.00
2013-8-13,68,66,63,66,63,60,97,91,77,29.90,29.67,1,0,79,0.00
2013-8-14,68,60,53,63,53,49,98,79,60,29.94,29.65,4,1,10,0.00
2013-8-15,70,60,51,54,51,48,93,74,53,30.10,29.95,2,0,6,0.00
2013-8-16,74,63,53,58,52,49,90,69,44,30.18,30.09,2,0,5,0.00
2013-8-17,76,66,57,60,56,51,91,71,47,30.27,30.18,40,0,65,0.00
2013-8-18,76,66,56,63,58,54,97,79,48,30.25,30.06,2,0,2,0.00
2013-8-19,75,66,59,63,60,56,95,80,60,30.07,29.94,3,0,5,0.00
2013-8-20,80,70,61,64,60,57,91,71,47,30.08,29.97,2,0,4,0.00
2013-8-21,82,71,65,66,61,59,88,73,50,30.13,30.06,2,0,3,0.00
2013-8-22,83,73,63,70,65,61,95,77,47,30.00,29.80,85,6,85,0.00
2013-8-23,73,65,57,66,58,50,98,78,49,30.12,29.80,10,3,10,0.00
2013-8-24,73,62,50,52,49,46,90,65,40,30.32,30.13,5,1,5,0.00
2013-8-25,77,68,52,57,53,48,87,62,39,30.36,30.15,4,1,6,0.00
2013-8-26,75,68,59,66,62,55,94,82,66,30.15,29.85,4,1,8,0.02
2013-8-27,80,72,65,68,66,64,98,83,60,29.87,29.82,2,0,4,0.00
2013-8-28,81,71,63,70,66,62,98,86,62,29.96,29.83,6,1,6,0.46
2013-8-29,63,61,58,63,60,57,99,99,97,30.06,29.92,5,1,6,0.25
2013-8-30,80,68,58,67,63,57,100,86,62,30.01,29.80,5,0,22,0.00
2013-8-31,76,71,66,72,69,64,99,93,84,29.80,29.74,3,1,9,0.10
2013-9-1,80,72,66,73,69,65,99,91,77,29.85,29.76,2,0,7,0.00
2013-9-2,75,70,65,73,69,64,100,97,89,29.83,29.68,4,0,4,0.66
2013-9-3,73,66,59,68,63,56,100,91,79,29.80,29.67,1,0,4,0.00
2013-9-4,74,64,55,59,56,51,99,76,49,29.90,29.79,4,0,6,0.00
2013-9-5,64,59,48,56,50,42,93,73,48,30.14,29.83,3,0,7,0.00
2013-9-6,64,54,44,46,42,38,85,65,42,30.24,30.08,2,0,4,0.00
2013-9-7,74,61,50,56,48,42,80,63,39,30.08,29.84,3,0,5,0.00
2013-9-8,65,59,46,59,48,40,86,67,50,30.08,29.74,4,1,8,0.00
2013-9-9,64,54,44,50,44,38,85,69,47,30.23,30.08,3,0,7,0.00
2013-9-10,72,64,54,70,62,50,98,93,83,30.13,30.00,5,1,15,0.03
2013-9-11,88,78,67,76,72,66,98,83,62,30.04,29.88,14,1,14,0.03
2013-9-12,76,70,67,73,67,64,97,91,79,29.89,29.74,4,1,10,0.03
2013-9-13,67,62,54,65,61,52,99,96,90,29.76,29.58,6,2,6,0.05
2013-9-14,60,54,49,53,51,48,98,90,76,30.04,29.76,6,1,6,0.06
2013-9-15,65,55,46,54,49,45,99,83,60,30.16,30.03,2,0,4,0.00
2013-9-16,60,53,41,54,48,34,94,83,71,30.25,30.00,3,0,10,0.00
2013-9-17,59,47,36,44,38,34,96,73,48,30.44,30.26,2,0,7,0.00
2013-9-18,69,55,40,50,43,38,95,67,33,30.33,30.13,2,0,4,0.00
2013-9-19,74,61,48,54,50,45,90,68,40,30.14,30.03,2,0,3,0.00
2013-9-20,73,62,48,58,53,47,98,75,49,30.08,29.98,1,0,3,0.00
2013-9-21,71,62,52,62,57,50,98,85,65,29.99,29.69,7,1,18,0.00
2013-9-22,65,58,47,64,53,42,98,85,63,29.82,29.57,3,1,9,0.40
2013-9-23,55,47,40,43,40,37,90,78,62,30.01,29.83,4,1,10,0.00
2013-9-24,61,50,40,46,41,38,92,73,49,30.00,29.83,3,0,6,0.00
2013-9-25,64,54,46,54,47,42,87,78,59,29.99,29.88,3,0,11,0.00
2013-9-26,63,54,48,50,48,45,94,80,58,30.13,29.99,5,0,5,0.00
2013-9-27,62,55,51,53,50,49,94,84,67,30.27,30.13,2,0,3,0.00
2013-9-28,69,57,48,56,51,47,97,81,56,30.34,30.26,2,0,5,0.00
2013-9-29,66,54,44,53,49,44,99,84,56,30.26,30.10,1,0,5,0.00
2013-9-30,67,54,42,52,47,40,97,81,56,30.11,29.97,2,0,4,0.00
2013-10-1,72,60,50,58,52,47,93,77,54,29.98,29.85,2,0,5,0.00
2013-10-2,74,63,53,60,56,50,91,78,58,29.94,29.82,3,0,7,0.00
2013-10-3,72,62,54,54,49,42,82,63,34,30.08,29.95,2,0,4,0.00
2013-10-4,60,56,51,56,52,45,97,87,61,30.08,30.03,0,0,1,0.02
2013-10-5,63,58,55,56,55,51,97,89,76,30.11,30.05,1,0,4,0.00
2013-10-6,57,51,47,56,50,47,99,98,94,30.22,30.10,1,0,5,0.38
2013-10-7,70,58,51,67,57,51,100,98,86,30.14,29.75,14,1,21,0.17
2013-10-8,60,52,42,52,42,36,99,71,49,30.38,29.88,4,1,6,0.00
2013-10-9,58,46,36,44,40,34,97,80,51,30.49,30.38,3,0,6,0.00
2013-10-10,57,48,37,49,43,36,99,86,61,30.38,30.20,1,0,11,0.00
2013-10-11,68,54,44,50,45,37,96,75,33,30.20,30.12,2,0,7,0.00
2013-10-12,53,50,48,51,48,45,99,94,77,30.40,30.17,1,0,18,0.03
2013-10-13,55,48,42,48,46,42,100,92,73,30.45,30.38,1,0,5,0.01
2013-10-14,66,52,38,50,45,37,99,80,51,30.39,30.23,2,0,4,0.00
2013-10-15,62,56,52,55,51,46,94,84,69,30.26,30.16,2,0,5,0.00
2013-10-16,56,52,49,50,49,46,99,90,72,30.16,29.90,1,0,4,0.00
2013-10-17,69,59,50,56,50,44,98,76,41,29.89,29.74,7,2,12,0.00
2013-10-18,62,55,47,59,46,36,99,71,51,29.88,29.57,14,3,17,0.05
2013-10-19,62,52,42,44,40,37,84,65,46,29.94,29.73,8,2,13,0.00
2013-10-20,56,48,41,47,39,34,96,71,48,30.00,29.67,10,1,14,0.00
2013-10-21,63,50,36,42,38,34,90,65,42,30.10,29.96,11,2,17,0.00
2013-10-22,57,50,41,50,44,33,92,82,68,29.95,29.70,8,2,16,0.00
2013-10-23,50,42,34,35,32,29,86,66,44,29.78,29.59,2,0,17,0.00
2013-10-24,46,37,-90,35,28,-92,88,68,48,29.87,29.65,8,1,15,0.00
2013-10-25,45,37,31,32,28,25,94,71,48,30.14,29.88,5,1,9,0.00
2013-10-26,49,41,33,33,29,26,87,65,40,30.14,29.86,21,4,21,0.00
2013-10-27,49,43,35,35,31,27,79,64,49,30.04,29.78,6,1,13,0.00
2013-10-28,52,40,32,35,30,22,84,69,47,30.35,30.04,9,2,15,0.00
2013-10-29,46,34,26,23,18,12,76,54,30,30.45,30.35,3,0,8,0.00
2013-10-30,48,37,29,36,27,14,88,66,46,30.37,30.20,8,1,10,0.00
2013-10-31,58,48,37,57,46,34,98,93,83,30.24,29.77,10,2,23,0.07
2013-11-1,65,60,53,61,55,45,95,85,71,29.75,29.39,14,6,30,0.08
2013-11-2,61,51,43,47,42,39,97,74,48,29.73,29.58,4,1,8,0.01
2013-11-3,43,35,27,42,23,14,97,64,37,30.42,29.73,6,1,9,0.00
2013-11-4,39,30,24,18,14,12,71,54,34,30.72,30.43,4,0,6,0.00
2013-11-5,46,29,-90,35,19,-94,80,67,53,30.72,30.49,7,1,10,0.00
2013-11-6,55,45,39,43,39,34,90,80,62,30.50,30.18,14,3,21,0.00
2013-11-7,57,49,37,55,45,25,96,86,62,30.00,29.67,21,11,21,0.01
2013-11-8,40,33,28,31,24,21,80,67,55,30.07,29.80,9,3,72,0.00
2013-11-9,41,35,28,28,23,20,75,62,48,30.20,30.02,6,1,13,0.00
2013-11-10,46,39,34,39,34,28,96,83,65,30.01,29.73,11,2,12,0.00
2013-11-11,47,40,33,32,27,21,80,61,37,30.08,29.85,9,3,19,0.00
2013-11-12,41,30,22,34,21,14,93,70,54,30.18,29.87,8,2,11,0.00
2013-11-13,30,24,17,17,13,9,82,63,42,30.30,30.14,5,1,10,0.00
2013-11-14,46,36,26,26,21,16,67,53,42,30.13,30.05,10,3,16,0.00
2013-11-15,53,44,38,27,17,13,57,34,22,30.18,30.10,13,4,15,0.00
2013-11-16,57,47,38,34,27,21,66,46,31,30.30,30.17,5,1,8,0.00
2013-11-17,46,41,35,45,38,30,99,89,68,30.29,29.85,3,0,8,0.07
2013-11-18,59,52,42,58,44,31,100,75,42,29.84,29.51,7,2,15,0.40
2013-11-19,42,33,26,31,20,14,72,59,50,30.30,29.63,8,3,16,0.00
2013-11-20,36,28,23,15,13,10,71,54,33,30.64,30.30,6,1,32,0.00
2013-11-21,43,32,19,28,17,8,73,53,26,30.65,30.37,8,1,12,0.00
2013-11-22,43,39,36,42,37,29,99,93,70,30.36,29.81,9,1,15,0.14
2013-11-23,44,36,32,43,29,18,98,76,49,29.92,29.80,8,2,16,0.00
2013-11-24,23,17,13,14,1,-4,75,50,35,30.20,29.78,14,6,31,0.00
2013-11-25,29,20,10,12,2,-7,55,46,28,30.38,30.21,9,2,16,0.00
2013-11-26,33,29,24,30,22,12,97,78,53,30.32,30.07,9,2,13,0.00
2013-11-27,48,39,31,47,38,29,99,98,89,30.07,29.27,7,1,11,2.44
2013-11-28,32,24,16,30,14,3,94,66,39,30.42,29.45,10,2,15,0.00
2013-11-29,26,19,13,13,7,-5,89,62,28,30.77,30.42,4,0,8,0.00
2013-11-30,27,19,10,20,10,4,79,67,51,30.82,30.45,3,0,6,0.00
2013-12-1,35,30,26,32,28,20,98,90,75,30.45,30.05,1,0,6,0.00
2013-12-2,35,33,31,35,33,30,99,99,98,30.05,29.92,1,0,14,0.02
2013-12-3,45,34,29,38,32,28,99,90,65,29.96,29.87,2,0,6,0.01
2013-12-4,38,32,28,28,26,24,95,79,61,30.20,29.95,2,0,6,0.00
2013-12-5,52,36,32,51,33,27,99,91,76,30.21,29.89,9,1,16,0.05
2013-12-6,52,42,31,51,39,27,100,90,57,30.13,29.86,12,1,16,0.08
2013-12-7,31,28,21,31,23,15,98,83,67,30.44,30.07,8,1,12,0.00
2013-12-8,25,22,18,18,15,12,82,72,58,30.58,30.44,2,0,5,0.00
2013-12-9,31,26,20,31,25,16,99,94,75,30.51,29.89,2,0,6,0.00
2013-12-10,32,26,17,31,23,11,99,89,76,29.98,29.78,5,0,8,0.00
2013-12-11,27,21,17,17,14,10,91,74,55,30.17,29.98,9,2,17,0.00
2013-12-12,19,14,9,16,4,-3,90,66,40,30.26,30.05,10,2,14,0.00
2013-12-13,21,13,3,18,9,-1,92,82,70,30.42,29.98,11,2,15,0.00
2013-12-14,10,5,0,6,-1,-6,90,76,49,30.62,30.24,2,0,8,0.00
2013-12-15,24,17,9,23,15,6,95,92,85,30.23,29.51,3,0,11,0.00
2013-12-16,21,16,7,17,8,1,89,70,48,30.20,29.74,6,1,11,0.00
2013-12-17,11,5,-3,9,1,-6,91,85,75,30.28,30.05,0,0,3,0.00
2013-12-18,28,20,10,21,16,8,93,85,70,30.07,29.93,0,0,0,0.00
2013-12-19,37,29,22,27,22,18,87,75,57,30.11,29.95,7,1,12,0.01
2013-12-20,45,39,31,35,30,25,80,71,60,30.12,29.90,9,2,19,0.20
2013-12-21,54,48,42,47,40,32,92,77,64,29.92,29.83,12,5,35,0.00
2013-12-22,50,37,31,50,37,30,99,98,92,30.01,29.76,4,1,17,0.13
2013-12-23,36,32,30,35,31,30,99,99,94,30.12,29.97,3,0,5,0.06
2013-12-24,31,26,17,29,17,8,92,70,58,30.20,30.05,6,1,8,0.00
2013-12-25,19,13,6,10,2,-1,78,63,45,30.53,30.20,4,1,15,0.00
2013-12-26,27,21,14,25,17,4,95,85,63,30.49,30.10,5,0,27,0.00
2013-12-27,29,25,20,22,20,17,92,80,65,30.26,30.18,16,1,16,0.00
2013-12-28,40,32,24,30,25,20,86,76,61,30.21,29.98,15,3,59,0.03
2013-12-29,41,36,32,35,30,28,98,80,63,30.02,29.51,23,2,66,0.61
2013-12-30,34,26,8,33,22,4,99,85,71,30.17,29.55,6,1,15,0.24
2013-12-31,19,11,2,13,6,-2,92,79,58,30.19,30.02,3,0,43,0.00
2014-1-1,20,14,10,9,6,4,82,72,56,30.39,30.19,7,1,12,0.00
2014-1-2,14,5,-3,10,2,-6,89,87,79,30.38,29.93,6,1,17,0.00